Time;durP1;ratioP1;P1;durP2;ratioP2;P2;SDS_P1;SDS_P2;PMS_P1;PMS_P2;Temp;Humidity;BMP_temperature;BMP_pressure;BME280_temperature;BME280_humidity;BME280_pressure;Samples;Min_cycle;Max_cycle;Signal;HPM_P1;HPM_P2
2021/06/06 00:01:13;;;;;;;7.57;5.93;;;359.00;2329.60;;;;;;5111379;28;20036;-75
2021/06/06 00:03:43;;;;;;;8.65;5.75;;;358.90;2329.60;;;;;;5112440;28;20030;-78
2021/06/06 00:06:13;;;;;;;7.35;5.90;;;358.90;2329.60;;;;;;5108491;28;20102;-75
2021/06/06 00:08:39;;;;;;;8.35;5.63;;;358.90;2329.60;;;;;;5108902;28;20028;-75
2021/06/06 00:11:12;;;;;;;8.75;5.78;;;358.90;2329.60;;;;;;5109570;28;20076;-77
2021/06/06 00:13:39;;;;;;;10.55;5.45;;;358.90;2329.60;;;;;;5110516;28;20406;-81
2021/06/06 00:16:08;;;;;;;8.48;4.95;;;358.90;2329.60;;;;;;5088040;28;20019;-78
2021/06/06 00:18:35;;;;;;;9.05;5.30;;;359.00;2329.60;;;;;;5107390;28;20043;-77
2021/06/06 00:21:05;;;;;;;7.28;5.18;;;359.00;2329.60;;;;;;5094570;28;20016;-75
2021/06/06 00:23:32;;;;;;;7.30;5.00;;;359.00;2329.60;;;;;;5111571;28;20019;-78
2021/06/06 00:25:59;;;;;;;7.28;5.38;;;358.90;2329.60;;;;;;5115135;28;20015;-79
2021/06/06 00:28:25;;;;;;;10.10;6.18;;;358.90;2329.60;;;;;;5114578;28;20377;-78
2021/06/06 00:30:51;;;;;;;7.85;5.70;;;358.80;2329.60;;;;;;5115880;28;20026;-78
2021/06/06 00:33:17;;;;;;;8.23;5.82;;;358.60;2329.60;;;;;;5098313;28;20043;-78
2021/06/06 00:35:43;;;;;;;10.75;5.95;;;358.40;2329.60;;;;;;5096072;28;20020;-78
2021/06/06 00:38:08;;;;;;;8.55;5.60;;;333.70;2329.60;;;;;;5096108;28;20020;-78
2021/06/06 00:40:36;;;;;;;8.70;5.85;;;358.40;2329.60;;;;;;5096249;28;20456;-78
2021/06/06 00:43:05;;;;;;;7.82;4.97;;;358.50;2329.60;;;;;;5096149;28;20020;-78
2021/06/06 00:45:32;;;;;;;7.15;5.40;;;358.50;2329.60;;;;;;5087880;28;20020;-79
2021/06/06 00:47:58;;;;;;;10.75;5.45;;;358.60;2329.60;;;;;;5096006;28;20047;-79
2021/06/06 00:50:31;;;;;;;7.15;5.30;;;358.60;2329.60;;;;;;5095953;28;20064;-77
2021/06/06 00:53:02;;;;;;;8.82;5.47;;;358.60;2329.60;;;;;;5095733;28;20054;-78
2021/06/06 00:55:28;;;;;;;8.80;5.30;;;358.70;2329.60;;;;;;5095857;28;20016;-78
2021/06/06 00:57:55;;;;;;;8.05;5.43;;;358.70;2329.60;;;;;;5095563;28;20051;-78
2021/06/06 01:00:32;;;;;;;10.32;5.60;;;358.60;2329.60;;;;;;5095545;28;20020;-79
2021/06/06 01:02:58;;;;;;;9.23;5.70;;;358.60;2329.60;;;;;;5074810;28;20035;-82
2021/06/06 01:05:24;;;;;;;7.70;5.22;;;358.60;2329.60;;;;;;5077433;28;20016;-79
2021/06/06 01:07:50;;;;;;;7.72;5.45;;;358.50;2329.60;;;;;;5085010;28;20021;-79
2021/06/06 01:10:16;;;;;;;8.32;5.30;;;333.70;2329.60;;;;;;5075315;28;20479;-79
2021/06/06 01:12:47;;;;;;;8.25;5.57;;;333.60;2329.60;;;;;;5075514;28;20040;-78
2021/06/06 01:15:28;;;;;;;7.82;5.72;;;333.60;2329.60;;;;;;5076800;28;20019;-78
2021/06/06 01:18:03;;;;;;;8.95;5.82;;;333.40;2329.60;;;;;;5091289;28;20024;-78
2021/06/06 01:20:34;;;;;;;6.82;5.45;;;333.40;2329.60;;;;;;5075368;28;20020;-77
2021/06/06 01:23:26;;;;;;;8.27;5.63;;;333.40;2329.60;;;;;;5083027;28;20066;-77
2021/06/06 01:25:57;;;;;;;7.55;5.88;;;333.30;2329.60;;;;;;5077157;28;20086;-77
2021/06/06 01:28:37;;;;;;;7.10;5.50;;;333.30;2329.60;;;;;;5076603;28;20024;-77
2021/06/06 01:31:05;;;;;;;6.60;5.40;;;333.30;2329.60;;;;;;5076447;28;20059;-77
2021/06/06 01:33:38;;;;;;;7.55;5.72;;;333.20;2329.60;;;;;;5076754;28;20046;-78
2021/06/06 01:36:08;;;;;;;7.70;5.93;;;333.20;2329.60;;;;;;5083776;28;20021;-77
2021/06/06 01:38:38;;;;;;;8.25;5.90;;;333.10;2329.60;;;;;;5074694;28;20017;-76
2021/06/06 01:41:15;;;;;;;8.85;6.10;;;333.00;2329.60;;;;;;5074878;28;20028;-76
2021/06/06 01:43:46;;;;;;;8.10;5.82;;;332.90;2329.60;;;;;;5087149;28;20016;-76
2021/06/06 01:46:17;;;;;;;8.65;5.80;;;332.90;2329.60;;;;;;5094985;28;20016;-76
2021/06/06 01:48:44;;;;;;;7.90;6.00;;;332.90;2329.60;;;;;;5093452;28;20020;-79
2021/06/06 01:51:24;;;;;;;9.80;5.97;;;332.80;2329.60;;;;;;5076651;28;20016;-77
2021/06/06 01:53:51;;;;;;;8.27;5.95;;;308.10;2304.00;;;;;;5094407;28;20403;-76
2021/06/06 01:56:20;;;;;;;10.43;5.70;;;332.80;2329.60;;;;;;5094702;28;20024;-77
2021/06/06 01:58:47;;;;;;;8.27;5.97;;;308.00;2304.00;;;;;;5093986;28;20075;-76
2021/06/06 02:01:19;;;;;;;8.77;5.85;;;307.90;2304.00;;;;;;5086492;28;20024;-75
2021/06/06 02:03:50;;;;;;;9.00;6.07;;;307.90;2304.00;;;;;;5074255;28;20013;-76
2021/06/06 02:06:20;;;;;;;9.13;6.13;;;307.80;2304.00;;;;;;5082495;28;20387;-75
2021/06/06 02:08:47;;;;;;;9.38;5.72;;;307.80;2304.00;;;;;;5074212;28;20074;-75
2021/06/06 02:11:22;;;;;;;6.95;5.60;;;307.90;2304.00;;;;;;5074140;28;20074;-75
2021/06/06 02:14:01;;;;;;;7.50;5.57;;;308.00;2304.00;;;;;;5086696;28;20467;-74
2021/06/06 02:16:32;;;;;;;7.78;5.60;;;308.10;2304.00;;;;;;5079411;28;20103;-74
2021/06/06 02:18:58;;;;;;;8.80;5.93;;;308.10;2304.00;;;;;;5074290;28;20523;-76
2021/06/06 02:21:24;;;;;;;8.98;5.80;;;332.80;2329.60;;;;;;5074018;28;20150;-75
2021/06/06 02:23:50;;;;;;;7.03;5.65;;;332.80;2329.60;;;;;;5079560;28;20025;-79
2021/06/06 02:26:36;;;;;;;7.22;5.57;;;332.80;2329.60;;;;;;5072881;28;20154;-75
2021/06/06 02:29:26;;;;;;;8.63;5.55;;;332.80;2329.60;;;;;;5074166;28;20020;-78
2021/06/06 02:32:12;;;;;;;6.30;5.10;;;308.10;2304.00;;;;;;5073893;28;20024;-77
2021/06/06 02:35:02;;;;;;;8.35;5.70;;;308.10;2304.00;;;;;;5073747;28;20036;-77
2021/06/06 02:37:29;;;;;;;7.80;5.88;;;308.10;2304.00;;;;;;5073837;28;20088;-78
2021/06/06 02:40:00;;;;;;;8.63;5.40;;;308.10;2304.00;;;;;;5073673;28;20017;-73
2021/06/06 02:42:31;;;;;;;9.30;5.50;;;308.10;2304.00;;;;;;5075639;28;20458;-84
2021/06/06 02:45:02;;;;;;;;;;;308.10;2304.00;;;;;;5073072;28;20037;-78
2021/06/06 02:47:36;;;;;;;8.00;5.75;;;308.00;2304.00;;;;;;5073594;28;20373;-80
2021/06/06 02:50:11;;;;;;;9.93;6.40;;;308.00;2304.00;;;;;;5076214;28;20044;-82
2021/06/06 02:52:45;;;;;;;8.88;6.05;;;307.90;2304.00;;;;;;5074719;28;20064;-74
2021/06/06 02:55:27;;;;;;;7.28;6.00;;;307.90;2304.00;;;;;;5075954;28;20387;-77
2021/06/06 02:58:00;;;;;;;7.55;5.88;;;307.80;2304.00;;;;;;5073241;28;20036;-78
2021/06/06 03:00:39;;;;;;;9.25;5.90;;;307.80;2304.00;;;;;;5075379;28;20020;-82
2021/06/06 03:03:17;;;;;;;7.53;5.32;;;307.60;2304.00;;;;;;5075430;28;20436;-74
2021/06/06 03:05:43;;;;;;;9.07;5.68;;;307.70;2304.00;;;;;;5082182;28;20044;-78
2021/06/06 03:08:10;;;;;;;8.27;6.20;;;307.70;2304.00;;;;;;5073305;28;20482;-81
2021/06/06 03:10:39;;;;;;;9.73;5.97;;;307.80;2304.00;;;;;;5074473;28;20032;-73
2021/06/06 03:13:18;;;;;;;9.30;5.93;;;307.80;2304.00;;;;;;5052102;28;20066;-78
2021/06/06 03:15:47;;;;;;;9.52;5.60;;;307.90;2304.00;;;;;;5065746;28;20428;-76
2021/06/06 03:18:14;;;;;;;7.97;6.10;;;308.00;2304.00;;;;;;5072942;28;20017;-78
2021/06/06 03:20:44;;;;;;;8.23;5.70;;;308.10;2304.00;;;;;;5075323;28;20020;-83
2021/06/06 03:23:14;;;;;;;8.50;5.70;;;332.80;2329.60;;;;;;5069531;28;20020;-78
2021/06/06 03:25:47;;;;;;;6.80;5.57;;;332.90;2329.60;;;;;;5075152;28;20035;-77
2021/06/06 03:28:16;;;;;;;8.55;5.88;;;332.90;2329.60;;;;;;5074782;28;20397;-74
2021/06/06 03:30:48;;;;;;;8.60;6.05;;;332.90;2329.60;;;;;;5081228;28;20090;-73
2021/06/06 03:33:36;;;;;;;8.50;5.28;;;333.00;2329.60;;;;;;5072522;28;20107;-82
2021/06/06 03:36:03;;;;;;;8.82;5.63;;;333.10;2329.60;;;;;;5074695;28;20059;-80
2021/06/06 03:38:28;;;;;;;7.82;5.30;;;333.20;2329.60;;;;;;5072862;28;20024;-79
2021/06/06 03:40:54;;;;;;;7.00;5.07;;;333.20;2329.60;;;;;;5072724;28;20028;-80
2021/06/06 03:43:20;;;;;;;7.47;5.57;;;333.30;2329.60;;;;;;5072445;28;20016;-80
2021/06/06 03:45:46;;;;;;;7.70;5.68;;;333.20;2329.60;;;;;;5072696;28;20486;-75
2021/06/06 03:48:12;;;;;;;7.50;5.80;;;333.30;2329.60;;;;;;5072759;28;20185;-75
2021/06/06 03:50:39;;;;;;;8.57;5.80;;;333.40;2329.60;;;;;;5066758;28;20527;-76
2021/06/06 03:53:07;;;;;;;7.00;5.90;;;333.50;2329.60;;;;;;5072427;28;20021;-76
2021/06/06 03:55:32;;;;;;;7.10;5.65;;;333.60;2329.60;;;;;;5085784;28;20017;-75
2021/06/06 03:57:58;;;;;;;7.63;5.90;;;333.40;2329.60;;;;;;5072145;28;20048;-78
2021/06/06 04:00:33;;;;;;;7.00;5.55;;;333.50;2329.60;;;;;;5072335;28;20074;-84
2021/06/06 04:03:00;;;;;;;9.40;5.90;;;333.70;2329.60;;;;;;5074521;28;20077;-79
2021/06/06 04:05:26;;;;;;;7.90;5.75;;;358.40;2329.60;;;;;;5079773;28;20013;-75
2021/06/06 04:07:52;;;;;;;8.77;5.57;;;358.50;2329.60;;;;;;5072308;28;20127;-76
2021/06/06 04:10:19;;;;;;;8.90;6.05;;;358.50;2329.60;;;;;;5072297;28;20108;-85
2021/06/06 04:12:45;;;;;;;7.47;5.47;;;358.70;2329.60;;;;;;5074159;28;20543;-80
2021/06/06 04:15:11;;;;;;;7.25;5.32;;;358.80;2329.60;;;;;;5083062;28;20494;-80
2021/06/06 04:17:37;;;;;;;11.75;8.20;;;359.00;2329.60;;;;;;5087258;28;20030;-82
2021/06/06 04:20:05;;;;;;;42.20;23.75;;;359.10;2329.60;;;;;;5072547;28;20099;-82
2021/06/06 04:22:30;;;;;;;36.92;20.80;;;359.30;2329.60;;;;;;5078174;28;20478;-78
2021/06/06 04:24:57;;;;;;;26.33;16.40;;;359.30;2329.60;;;;;;5072697;28;20035;-86
2021/06/06 04:27:24;;;;;;;10.00;7.68;;;359.20;2329.60;;;;;;5054895;28;20024;-84
2021/06/06 04:29:50;;;;;;;9.73;6.70;;;359.30;2329.60;;;;;;5056429;28;20139;-80
2021/06/06 04:32:17;;;;;;;9.63;6.47;;;359.20;2329.60;;;;;;5081932;28;20112;-80
2021/06/06 04:34:45;;;;;;;14.98;11.35;;;384.00;2329.60;;;;;;5077395;28;20497;-79
2021/06/06 04:37:13;;;;;;;9.93;8.13;;;384.10;2329.60;;;;;;5046421;28;20047;-85
2021/06/06 04:39:40;;;;;;;8.93;7.28;;;384.40;2329.60;;;;;;5072881;28;20028;-84
2021/06/06 04:42:09;;;;;;;11.13;6.85;;;384.40;2329.60;;;;;;5074334;28;20028;-78
2021/06/06 04:44:38;;;;;;;7.60;6.50;;;384.40;2329.60;;;;;;5075420;28;20025;-80
2021/06/06 04:47:09;;;;;;;9.57;5.60;;;384.70;2329.60;;;;;;5085872;28;20025;-79
2021/06/06 04:49:40;;;;;;;8.55;5.97;;;384.80;2329.60;;;;;;5074041;28;20028;-78
2021/06/06 04:52:10;;;;;;;7.93;5.90;;;384.70;2329.60;;;;;;5080814;28;20093;-82
2021/06/06 04:54:35;;;;;;;7.30;5.68;;;409.70;2355.20;;;;;;5075715;28;20531;-78
2021/06/06 04:57:03;;;;;;;7.45;5.30;;;410.00;2355.20;;;;;;5073276;28;20117;-79
2021/06/06 04:59:29;;;;;;;7.28;5.00;;;410.10;2355.20;;;;;;5073717;28;20021;-79
2021/06/06 05:02:22;;;;;;;7.10;5.55;;;410.50;2355.20;;;;;;5067758;28;20054;-77
2021/06/06 05:05:08;;;;;;;8.98;5.70;;;410.40;2355.20;;;;;;5083085;28;20385;-80
2021/06/06 05:07:35;;;;;;;7.53;5.63;;;410.40;2355.20;;;;;;5074181;28;20374;-83
2021/06/06 05:10:04;;;;;;;6.47;5.07;;;435.30;2355.20;;;;;;5057911;28;20048;-78
2021/06/06 05:12:30;;;;;;;6.97;5.25;;;435.60;2355.20;;;;;;5075371;28;20036;-73
2021/06/06 05:14:55;;;;;;;6.78;5.00;;;435.90;2355.20;;;;;;5077534;28;20479;-81
2021/06/06 05:17:21;;;;;;;9.98;5.68;;;435.80;2355.20;;;;;;5086493;28;20056;-85
2021/06/06 05:20:01;;;;;;;10.07;6.00;;;436.00;2355.20;;;;;;5077625;28;20024;-83
2021/06/06 05:22:27;;;;;;;7.67;5.97;;;436.10;2355.20;;;;;;5080192;28;20028;-80
2021/06/06 05:24:52;;;;;;;8.05;5.70;;;460.80;2380.80;;;;;;5077572;28;20103;-81
2021/06/06 05:27:18;;;;;;;7.30;5.30;;;461.10;2380.80;;;;;;5077118;28;20077;-84
2021/06/06 05:29:44;;;;;;;7.50;5.60;;;461.30;2380.80;;;;;;5077048;28;20027;-79
2021/06/06 05:32:09;;;;;;;9.00;5.65;;;461.40;2380.80;;;;;;5085488;28;20483;-86
2021/06/06 05:34:35;;;;;;;10.50;5.82;;;461.60;2380.80;;;;;;5075223;28;20032;-77
2021/06/06 05:37:01;;;;;;;7.97;5.32;;;486.50;2380.80;;;;;;5075232;28;20413;-76
2021/06/06 05:39:26;;;;;;;7.68;5.93;;;486.60;2380.80;;;;;;5075011;28;20035;-77
2021/06/06 05:41:53;;;;;;;7.97;5.68;;;486.50;2380.80;;;;;;5074995;28;20032;-85
2021/06/06 05:44:19;;;;;;;8.52;5.63;;;486.50;2380.80;;;;;;5075618;28;20029;-82
2021/06/06 05:46:57;;;;;;;7.40;6.03;;;486.70;2380.80;;;;;;5082023;28;20020;-80
2021/06/06 05:49:23;;;;;;;10.50;5.65;;;486.60;2380.80;;;;;;5088372;28;20025;-80
2021/06/06 05:51:50;;;;;;;8.40;5.80;;;486.60;2380.80;;;;;;5076097;28;20035;-87
2021/06/06 05:54:16;;;;;;;9.85;5.90;;;486.50;2380.80;;;;;;5087912;28;20022;-76
2021/06/06 05:56:44;;;;;;;8.32;5.50;;;486.60;2380.80;;;;;;5088329;28;20854;-76
2021/06/06 05:59:10;;;;;;;7.70;5.65;;;486.70;2380.80;;;;;;5091755;28;20035;-82
2021/06/06 06:01:36;;;;;;;7.70;5.78;;;486.80;2380.80;;;;;;5086580;28;20046;-77
2021/06/06 06:04:02;;;;;;;8.65;5.43;;;486.80;2380.80;;;;;;5092059;28;20024;-78
2021/06/06 06:06:28;;;;;;;8.13;5.45;;;487.00;2380.80;;;;;;5087560;28;20065;-78
2021/06/06 06:08:55;;;;;;;7.60;5.60;;;487.00;2380.80;;;;;;5090347;28;20023;-80
2021/06/06 06:11:22;;;;;;;7.13;5.63;;;487.30;2380.80;;;;;;5067491;28;20372;-83
2021/06/06 06:13:49;;;;;;;10.38;5.90;;;512.20;2380.80;;;;;;5089721;28;20028;-76
2021/06/06 06:16:17;;;;;;;7.72;5.72;;;512.60;2380.80;;;;;;5091271;28;20103;-85
2021/06/06 06:18:43;;;;;;;9.80;5.60;;;512.50;2380.80;;;;;;5090458;28;20019;-79
2021/06/06 06:21:12;;;;;;;12.55;7.88;;;512.60;2380.80;;;;;;5090953;28;20020;-79
2021/06/06 06:23:38;;;;;;;8.50;5.95;;;512.90;2380.80;;;;;;5087008;28;20024;-79
2021/06/06 06:26:05;;;;;;;9.48;5.65;;;537.80;2406.40;;;;;;5088054;28;20031;-80
2021/06/06 06:28:31;;;;;;;7.35;5.90;;;537.90;2406.40;;;;;;5087097;28;20028;-76
2021/06/06 06:30:56;;;;;;;7.70;6.07;;;538.10;2406.40;;;;;;5087779;28;20089;-80
2021/06/06 06:33:22;;;;;;;8.68;6.68;;;563.20;2432.00;;;;;;5088361;28;20031;-86
2021/06/06 06:35:50;;;;;;;8.05;6.20;;;538.40;2406.40;;;;;;5085156;28;20031;-85
2021/06/06 06:38:16;;;;;;;7.00;5.70;;;538.30;2406.40;;;;;;5073342;28;20382;-77
2021/06/06 06:40:43;;;;;;;8.18;5.70;;;563.40;2432.00;;;;;;5089592;28;20034;-75
2021/06/06 06:43:11;;;;;;;9.38;6.60;;;563.70;2432.00;;;;;;5087140;28;20017;-78
2021/06/06 06:45:40;;;;;;;8.45;6.00;;;563.70;2432.00;;;;;;5072812;28;20109;-73
2021/06/06 06:48:15;;;;;;;9.10;6.50;;;563.80;2432.00;;;;;;5088054;28;20417;-77
2021/06/06 06:50:42;;;;;;;8.23;5.75;;;589.00;2432.00;;;;;;5086588;28;20012;-75
2021/06/06 06:53:08;;;;;;;7.20;6.07;;;589.70;2432.00;;;;;;5090471;28;20027;-77
2021/06/06 06:55:34;;;;;;;9.00;5.88;;;589.30;2432.00;;;;;;5091312;28;20018;-83
2021/06/06 06:58:02;;;;;;;8.73;6.10;;;589.70;2432.00;;;;;;5067198;28;20045;-84
2021/06/06 07:00:32;;;;;;;7.28;5.80;;;589.50;2432.00;;;;;;5066666;28;20099;-78
2021/06/06 07:02:57;;;;;;;6.10;5.30;;;614.40;2432.00;;;;;;5066725;28;20073;-85
2021/06/06 07:05:23;;;;;;;8.00;5.60;;;615.10;2432.00;;;;;;5049803;28;20028;-76
2021/06/06 07:07:51;;;;;;;7.43;5.70;;;640.10;2432.00;;;;;;5065147;28;20445;-81
2021/06/06 07:10:22;;;;;;;6.60;5.55;;;640.10;2432.00;;;;;;5081924;28;20056;-80
2021/06/06 07:12:48;;;;;;;8.05;6.22;;;640.70;2432.00;;;;;;5072008;28;20382;-78
2021/06/06 07:15:15;;;;;;;7.80;6.18;;;640.20;2432.00;;;;;;5073011;28;20027;-75
2021/06/06 07:17:42;;;;;;;6.80;5.50;;;615.30;2432.00;;;;;;5067047;28;20108;-77
2021/06/06 07:20:11;;;;;;;8.73;6.50;;;615.20;2432.00;;;;;;5071704;28;20021;-78
2021/06/06 07:22:37;;;;;;;7.78;5.85;;;615.00;2432.00;;;;;;5066768;28;20391;-82
2021/06/06 07:25:05;;;;;;;9.57;6.25;;;614.90;2432.00;;;;;;5066304;28;20548;-80
2021/06/06 07:27:33;;;;;;;8.77;6.30;;;614.70;2432.00;;;;;;5072825;28;20115;-77
2021/06/06 07:29:59;;;;;;;10.35;6.40;;;614.80;2432.00;;;;;;5068915;28;20077;-80
2021/06/06 07:32:31;;;;;;;9.23;6.38;;;640.00;2432.00;;;;;;5069588;28;20025;-83
2021/06/06 07:34:57;;;;;;;8.90;6.47;;;640.40;2432.00;;;;;;5072800;28;20017;-75
2021/06/06 07:37:28;;;;;;;9.40;6.25;;;665.60;2432.00;;;;;;5071702;28;20048;-81
2021/06/06 07:39:53;;;;;;;9.45;6.15;;;640.60;2432.00;;;;;;5079983;28;20029;-83
2021/06/06 07:42:19;;;;;;;8.45;6.50;;;640.50;2432.00;;;;;;5078223;28;20027;-84
2021/06/06 07:44:45;;;;;;;7.95;5.70;;;640.30;2432.00;;;;;;5067494;28;20025;-78
2021/06/06 07:47:10;;;;;;;9.20;6.00;;;640.40;2432.00;;;;;;5072562;28;20082;-77
2021/06/06 07:49:38;;;;;;;7.93;5.97;;;640.40;2432.00;;;;;;5068367;28;20388;-76
2021/06/06 07:52:05;;;;;;;9.10;6.50;;;640.60;2432.00;;;;;;5073315;28;20483;-74
2021/06/06 07:54:31;;;;;;;9.07;5.90;;;640.60;2432.00;;;;;;5090910;28;20028;-77
2021/06/06 07:56:59;;;;;;;6.68;5.78;;;640.90;2432.00;;;;;;5074353;28;20031;-74
2021/06/06 07:59:25;;;;;;;8.45;5.70;;;665.70;2432.00;;;;;;5097764;28;20024;-75
2021/06/06 08:01:53;;;;;;;8.82;5.47;;;665.80;2432.00;;;;;;5096128;28;20062;-84
2021/06/06 08:04:18;;;;;;;8.35;5.47;;;666.50;2432.00;;;;;;5071750;28;20074;-80
2021/06/06 08:06:44;;;;;;;6.75;5.75;;;691.30;2432.00;;;;;;5107183;28;20031;-79
2021/06/06 08:09:10;;;;;;;6.53;5.55;;;691.80;2432.00;;;;;;5100658;28;21024;-84
2021/06/06 08:11:53;;;;;;;7.60;5.22;;;716.80;2432.00;;;;;;5078847;28;20473;-86
2021/06/06 08:14:19;;;;;;;5.63;4.68;;;691.70;2406.40;;;;;;5102314;28;20103;-79
2021/06/06 08:16:44;;;;;;;6.70;4.70;;;691.50;2355.20;;;;;;5107752;28;20458;-75
2021/06/06 08:19:10;;;;;;;7.65;5.35;;;691.90;2329.60;;;;;;5103332;28;20095;-77
2021/06/06 08:21:46;;;;;;;8.00;4.80;;;691.90;2329.60;;;;;;5111362;28;20031;-77
2021/06/06 08:24:12;;;;;;;5.53;4.70;;;691.80;2278.40;;;;;;5099221;28;20060;-76
2021/06/06 08:26:39;;;;;;;7.95;4.70;;;691.60;2278.40;;;;;;5103083;28;20020;-76
2021/06/06 08:29:06;;;;;;;6.95;5.07;;;691.40;2304.00;;;;;;5102679;28;20439;-73
2021/06/06 08:31:36;;;;;;;6.95;4.93;;;691.90;2278.40;;;;;;5091242;28;20032;-75
2021/06/06 08:34:04;;;;;;;6.88;4.90;;;716.80;2329.60;;;;;;5103931;28;20134;-78
2021/06/06 08:36:35;;;;;;;7.40;5.07;;;742.40;2278.40;;;;;;5104876;28;20020;-77
2021/06/06 08:39:05;;;;;;;6.28;5.20;;;742.60;2252.80;;;;;;5088978;28;20467;-84
2021/06/06 08:41:59;;;;;;;8.18;5.32;;;743.10;2150.40;;;;;;5108128;28;20569;-73
2021/06/06 08:44:31;;;;;;;7.78;4.68;;;743.20;2124.80;;;;;;5103194;28;20020;-82
2021/06/06 08:47:06;;;;;;;7.57;5.43;;;768.40;2099.20;;;;;;5104153;28;20113;-84
2021/06/06 08:49:47;;;;;;;12.38;5.50;;;768.40;2022.40;;;;;;5100571;28;20031;-82
2021/06/06 08:52:25;;;;;;;6.50;4.93;;;768.50;1996.80;;;;;;5097770;28;20040;-83
2021/06/06 08:54:50;;;;;;;7.47;5.10;;;768.50;2022.40;;;;;;5107411;28;20410;-78
2021/06/06 08:57:42;;;;;;;8.43;5.40;;;793.70;1996.80;;;;;;5107442;28;20063;-77
2021/06/06 09:00:32;;;;;;;6.82;5.18;;;794.30;1945.60;;;;;;5102538;28;20015;-79
2021/06/06 09:03:04;;;;;;;;;;;819.60;1894.40;;;;;;5109116;28;20031;-77
2021/06/06 09:05:40;;;;;;;6.70;5.07;;;820.00;1817.60;;;;;;5104282;28;19916;-79
2021/06/06 09:08:11;;;;;;;7.20;5.32;;;819.60;1843.20;;;;;;5108312;28;20028;-77
2021/06/06 09:10:43;;;;;;;6.32;5.50;;;793.60;1894.40;;;;;;5099418;28;20420;-73
2021/06/06 09:13:11;;;;;;;6.60;5.60;;;793.70;1894.40;;;;;;5092697;28;20103;-73
2021/06/06 09:15:38;;;;;;;8.13;5.57;;;793.70;1920.00;;;;;;5105122;28;20077;-74
2021/06/06 09:18:24;;;;;;;5.82;5.22;;;794.50;1843.20;;;;;;5076728;28;20040;-82
2021/06/06 09:20:51;;;;;;;7.35;5.32;;;819.70;1817.60;;;;;;5095266;28;20020;-75
2021/06/06 09:23:30;;;;;;;21.35;7.13;;;820.10;1792.00;;;;;;5095132;28;20020;-72
2021/06/06 09:26:06;;;;;;;12.27;6.43;;;845.10;1792.00;;;;;;5094105;28;20024;-73
2021/06/06 09:28:36;;;;;;;16.13;6.40;;;845.20;1766.40;;;;;;5083532;28;20039;-71
2021/06/06 09:31:07;;;;;;;70.18;14.35;;;844.90;1740.80;;;;;;5091836;28;20360;-71
2021/06/06 09:33:36;;;;;;;7.50;5.45;;;845.40;1715.20;;;;;;5096954;28;20047;-72
2021/06/06 09:36:20;;;;;;;6.38;5.10;;;844.90;1689.60;;;;;;5101635;28;20045;-71
2021/06/06 09:38:48;;;;;;;7.57;5.20;;;845.40;1689.60;;;;;;5105982;28;20428;-75
2021/06/06 09:41:14;;;;;;;86.45;15.85;;;845.50;1638.40;;;;;;5109658;28;20480;-70
2021/06/06 09:43:40;;;;;;;6.50;4.80;;;870.70;1664.00;;;;;;5113484;28;20080;-72
2021/06/06 09:46:16;;;;;;;27.55;8.48;;;845.50;1664.00;;;;;;5110686;28;20032;-76
2021/06/06 09:48:43;;;;;;;29.45;7.63;;;845.70;1664.00;;;;;;5106960;28;20024;-74
2021/06/06 09:51:21;;;;;;;14.55;6.15;;;845.50;1689.60;;;;;;5111437;28;20068;-72
2021/06/06 09:53:47;;;;;;;8.38;4.70;;;845.20;1664.00;;;;;;5107807;28;20024;-72
2021/06/06 09:56:23;;;;;;;36.83;10.25;;;820.00;1664.00;;;;;;5110693;28;20050;-74
2021/06/06 09:58:50;;;;;;;12.18;8.30;;;820.00;1638.40;;;;;;5108382;28;20043;-76
2021/06/06 10:01:24;;;;;;;9.98;5.75;;;844.90;1664.00;;;;;;5113607;28;20424;-80
2021/06/06 10:04:06;;;;;;;15.57;7.03;;;844.90;1638.40;;;;;;5113011;28;20450;-78
2021/06/06 10:06:43;;;;;;;8.13;4.95;;;845.00;1612.80;;;;;;5111613;28;20046;-75
2021/06/06 10:09:22;;;;;;;7.43;4.80;;;820.10;1587.20;;;;;;5101701;28;20485;-74
2021/06/06 10:11:53;;;;;;;26.83;7.30;;;819.60;1587.20;;;;;;5093950;28;20107;-76
2021/06/06 10:14:27;;;;;;;125.05;20.15;;;819.60;1638.40;;;;;;5093092;28;20020;-74
2021/06/06 10:16:57;;;;;;;43.45;8.88;;;819.90;1612.80;;;;;;5094440;28;20024;-74
2021/06/06 10:19:30;;;;;;;14.30;6.18;;;820.10;1587.20;;;;;;5092763;28;20039;-72
2021/06/06 10:22:02;;;;;;;26.02;8.02;;;820.00;1587.20;;;;;;5096578;28;20136;-75
2021/06/06 10:24:58;;;;;;;16.70;6.10;;;819.90;1561.60;;;;;;5091258;28;20012;-71
2021/06/06 10:27:39;;;;;;;20.60;6.15;;;819.80;1587.20;;;;;;5087358;28;20027;-72
2021/06/06 10:30:32;;;;;;;14.32;5.70;;;819.80;1561.60;;;;;;5099046;28;20015;-73
2021/06/06 10:33:12;;;;;;;9.32;5.20;;;819.50;1536.00;;;;;;5090356;28;20012;-75
2021/06/06 10:35:38;;;;;;;9.23;5.07;;;819.30;1561.60;;;;;;5072603;28;20422;-72
2021/06/06 10:38:04;;;;;;;6.60;4.82;;;819.30;1561.60;;;;;;5091897;28;20055;-72
2021/06/06 10:40:46;;;;;;;20.85;8.05;;;794.20;1536.00;;;;;;5089033;28;20524;-73
2021/06/06 10:43:32;;;;;;;20.45;8.38;;;794.50;1587.20;;;;;;5091134;28;20032;-73
2021/06/06 10:46:28;;;;;;;8.43;4.90;;;819.30;1536.00;;;;;;5091204;28;20039;-76
2021/06/06 10:49:10;;;;;;;9.15;4.60;;;819.60;1510.40;;;;;;5093088;28;20494;-75
2021/06/06 10:51:48;;;;;;;7.30;4.40;;;819.50;1484.80;;;;;;5092476;28;20032;-78
2021/06/06 10:54:33;;;;;;;6.55;4.50;;;819.30;1459.20;;;;;;5092418;28;20555;-79
2021/06/06 10:57:03;;;;;;;15.80;6.93;;;819.30;1484.80;;;;;;5090705;28;20356;-73
2021/06/06 10:59:44;;;;;;;12.73;9.25;;;819.40;1484.80;;;;;;5093560;28;20020;-83
2021/06/06 11:02:33;;;;;;;10.43;6.55;;;819.60;1408.00;;;;;;5092583;28;20023;-79
2021/06/06 11:05:05;;;;;;;15.70;7.88;;;819.90;1408.00;;;;;;5094540;28;20098;-74
2021/06/06 11:07:30;;;;;;;98.50;28.17;;;844.90;1433.60;;;;;;5079600;28;20101;-72
2021/06/06 11:10:13;;;;;;;16.00;5.75;;;845.10;1382.40;;;;;;5092880;28;20486;-73
2021/06/06 11:12:40;;;;;;;10.18;5.10;;;845.10;1356.80;;;;;;5062256;28;20020;-79
2021/06/06 11:15:30;;;;;;;40.63;10.05;;;845.20;1305.60;;;;;;5093203;28;20016;-72
2021/06/06 11:18:11;;;;;;;14.95;5.45;;;845.40;1331.20;;;;;;5092050;28;20073;-71
2021/06/06 11:20:52;;;;;;;15.88;7.82;;;845.70;1305.60;;;;;;5101959;28;20500;-75
2021/06/06 11:23:58;;;;;;;18.20;6.45;;;845.60;1280.00;;;;;;5104581;28;20076;-73
2021/06/06 11:26:37;;;;;;;10.45;4.85;;;845.70;1280.00;;;;;;5101033;28;20085;-78
2021/06/06 11:29:08;;;;;;;7.97;4.47;;;870.50;1305.60;;;;;;5082488;28;20031;-73
2021/06/06 11:31:35;;;;;;;6.40;4.40;;;870.50;1254.40;;;;;;5108280;28;20529;-76
2021/06/06 11:34:25;;;;;;;6.57;4.25;;;845.70;1280.00;;;;;;5112023;28;20466;-77
2021/06/06 11:37:06;;;;;;;5.68;3.80;;;845.50;1280.00;;;;;;5107450;28;20043;-76
2021/06/06 11:39:47;;;;;;;7.47;4.05;;;845.40;1305.60;;;;;;5097946;28;20035;-77
2021/06/06 11:42:35;;;;;;;4.97;3.92;;;845.30;1305.60;;;;;;5075301;28;20124;-74
2021/06/06 11:45:23;;;;;;;6.65;4.28;;;845.20;1254.40;;;;;;5091662;28;20074;-69
2021/06/06 11:47:56;;;;;;;6.38;4.05;;;845.40;1280.00;;;;;;5089953;28;20070;-78
2021/06/06 11:50:29;;;;;;;8.18;4.15;;;845.20;1280.00;;;;;;5091498;28;20485;-79
2021/06/06 11:53:28;;;;;;;6.32;4.03;;;845.30;1331.20;;;;;;5091475;28;20031;-82
2021/06/06 11:56:06;;;;;;;5.10;4.30;;;845.20;1331.20;;;;;;5071379;28;20085;-74
2021/06/06 11:58:40;;;;;;;5.60;4.85;;;845.30;1356.80;;;;;;5103549;28;20434;-75
2021/06/06 12:01:22;;;;;;;9.23;6.35;;;845.50;1331.20;;;;;;5099841;28;20025;-76
2021/06/06 12:03:53;;;;;;;6.65;4.20;;;870.40;1305.60;;;;;;5092674;28;20032;-75
2021/06/06 12:06:26;;;;;;;7.53;4.40;;;845.60;1305.60;;;;;;5092434;28;20024;-76
2021/06/06 12:08:55;;;;;;;6.38;4.00;;;845.30;1356.80;;;;;;5092264;28;20027;-80
2021/06/06 12:11:28;;;;;;;7.60;4.25;;;844.90;1331.20;;;;;;5054466;28;20044;-79
2021/06/06 12:14:31;;;;;;;7.20;5.03;;;844.80;1382.40;;;;;;5067701;28;20490;-70
2021/06/06 12:17:17;;;;;;;6.53;4.30;;;820.10;1382.40;;;;;;5012225;28;20026;-73
2021/06/06 12:19:52;;;;;;;6.47;4.72;;;819.90;1408.00;;;;;;5103421;28;20032;-71
2021/06/06 12:22:39;;;;;;;7.07;4.53;;;819.50;1408.00;;;;;;5105294;28;20448;-77
2021/06/06 12:25:13;;;;;;;7.20;4.45;;;819.20;1382.40;;;;;;5083377;28;20433;-72
2021/06/06 12:27:43;;;;;;;8.07;4.70;;;819.30;1408.00;;;;;;5092254;28;20031;-82
2021/06/06 12:30:33;;;;;;;7.20;4.35;;;819.60;1408.00;;;;;;5092436;28;20031;-82
2021/06/06 12:33:17;;;;;;;6.82;4.75;;;820.10;1433.60;;;;;;5092003;28;20498;-77
2021/06/06 12:35:52;;;;;;;5.93;4.05;;;820.10;1408.00;;;;;;5092111;28;20028;-78
2021/06/06 12:38:21;;;;;;;9.52;5.20;;;820.10;1408.00;;;;;;5092057;28;20039;-76